Time;durP1;ratioP1;P1;durP2;ratioP2;P2;SDS_P1;SDS_P2;PMS_P1;PMS_P2;Temp;Humidity;BMP_temperature;BMP_pressure;BME280_temperature;BME280_humidity;BME280_pressure;Samples;Min_cycle;Max_cycle;Signal;HPM_P1;HPM_P2
2022/07/06 00:02:21;;;;;;;11.38;4.20;;;;;;;24.79;51.94;99699.16;5122661;27;20253;-73
2022/07/06 00:04:47;;;;;;;9.15;3.80;;;;;;;24.91;51.94;99699.81;5129034;27;20091;-73
2022/07/06 00:07:13;;;;;;;7.65;4.03;;;;;;;24.95;51.60;99706.34;5122260;27;20263;-73
2022/07/06 00:09:40;;;;;;;12.98;3.67;;;;;;;24.81;51.24;99688.88;5126231;28;20023;-73
2022/07/06 00:12:06;;;;;;;9.30;3.95;;;;;;;24.92;51.43;99706.06;5122667;28;20064;-73
2022/07/06 00:14:31;;;;;;;6.05;3.70;;;;;;;24.89;51.30;99699.25;5126170;28;20261;-73
2022/07/06 00:16:56;;;;;;;10.85;3.85;;;;;;;24.99;51.63;99704.00;5123465;28;20182;-73
2022/07/06 00:19:22;;;;;;;11.25;4.47;;;;;;;25.07;51.19;99715.19;5126234;28;20031;-73
2022/07/06 00:21:47;;;;;;;7.50;3.78;;;;;;;25.12;51.13;99703.59;5123584;28;20038;-73
2022/07/06 00:24:13;;;;;;;9.95;4.63;;;;;;;25.14;51.60;99701.44;5125839;28;20063;-73
2022/07/06 00:26:38;;;;;;;9.25;4.20;;;;;;;24.89;50.73;99671.34;5123648;28;20019;-73
2022/07/06 00:29:04;;;;;;;10.05;4.15;;;;;;;25.13;50.72;99692.50;5125637;28;20031;-73
2022/07/06 00:31:29;;;;;;;11.18;4.00;;;;;;;25.18;50.40;99696.31;5122639;28;20036;-73
2022/07/06 00:33:55;;;;;;;11.70;4.30;;;;;;;25.17;50.47;99692.78;5127207;28;20100;-73
2022/07/06 00:36:20;;;;;;;7.25;3.55;;;;;;;25.23;49.80;99686.34;5121897;28;20254;-73
2022/07/06 00:38:46;;;;;;;6.50;4.22;;;;;;;25.35;49.61;99688.84;5123290;28;20321;-73
2022/07/06 00:41:13;;;;;;;7.95;4.20;;;;;;;25.31;49.09;99677.72;5123077;28;20377;-73
2022/07/06 00:43:55;;;;;;;15.02;4.20;;;;;;;24.94;51.59;99680.34;5125810;28;20031;-73
2022/07/06 00:46:26;;;;;;;5.70;3.83;;;;;;;24.69;52.85;99670.09;5121594;28;20027;-73
2022/07/06 00:48:52;;;;;;;7.35;4.43;;;;;;;24.65;53.57;99671.69;5125107;28;20031;-73
2022/07/06 00:51:17;;;;;;;6.20;4.18;;;;;;;24.65;54.21;99654.63;5124113;28;20034;-73
2022/07/06 00:53:44;;;;;;;9.15;4.45;;;;;;;24.68;53.64;99654.09;5121456;28;20069;-73
2022/07/06 00:56:10;;;;;;;11.52;5.38;;;;;;;24.52;53.99;99653.97;5122987;28;20357;-73
2022/07/06 00:58:36;;;;;;;18.95;5.22;;;;;;;24.56;53.99;99651.56;5121949;28;20054;-73
2022/07/06 01:01:01;;;;;;;7.50;5.05;;;;;;;24.47;54.51;99644.97;5121570;28;20028;-73
2022/07/06 01:03:26;;;;;;;14.10;4.70;;;;;;;24.64;53.80;99644.88;5125460;28;20035;-73
2022/07/06 01:05:52;;;;;;;10.85;5.15;;;;;;;24.41;54.58;99648.69;5122421;28;20080;-73
2022/07/06 01:08:18;;;;;;;15.85;4.93;;;;;;;24.47;53.99;99632.25;5130476;28;20034;-73
2022/07/06 01:10:43;;;;;;;7.55;4.55;;;;;;;24.60;54.92;99636.44;5123096;28;20041;-73
2022/07/06 01:13:09;;;;;;;10.52;4.65;;;;;;;24.79;54.42;99623.34;5123134;28;20043;-73
2022/07/06 01:15:35;;;;;;;10.80;5.10;;;;;;;24.89;54.43;99620.72;5123718;27;20066;-73
2022/07/06 01:18:00;;;;;;;12.27;5.00;;;;;;;24.86;54.21;99612.28;5128554;27;20035;-73
2022/07/06 01:20:28;;;;;;;10.48;4.53;;;;;;;24.82;53.52;99607.41;5126604;27;20467;-73
2022/07/06 01:22:55;;;;;;;9.50;4.60;;;;;;;24.88;54.11;99604.72;5125506;27;20052;-73
2022/07/06 01:25:21;;;;;;;10.40;4.60;;;;;;;24.89;54.33;99604.47;5125332;27;20045;-73
2022/07/06 01:27:47;;;;;;;8.75;4.97;;;;;;;24.88;55.08;99600.13;5123863;27;20319;-73
2022/07/06 01:30:15;;;;;;;10.95;5.18;;;;;;;24.81;54.96;99583.28;5129743;27;20055;-73
2022/07/06 01:32:43;;;;;;;10.65;4.57;;;;;;;24.81;54.95;99594.94;5126526;27;20055;-73
2022/07/06 01:35:11;;;;;;;11.75;5.32;;;;;;;24.70;54.99;99592.41;5128003;27;20049;-73
2022/07/06 01:37:37;;;;;;;9.30;4.80;;;;;;;24.59;55.20;99588.78;5125845;27;20039;-73
2022/07/06 01:40:04;;;;;;;15.77;5.30;;;;;;;24.65;55.17;99585.03;5128713;27;20044;-73
2022/07/06 01:42:30;;;;;;;12.25;5.90;;;;;;;24.58;55.82;99573.63;5124837;27;20093;-73
2022/07/06 01:44:56;;;;;;;11.95;6.05;;;;;;;24.51;55.93;99579.25;5126841;27;20035;-73
2022/07/06 01:47:22;;;;;;;13.27;5.90;;;;;;;24.33;56.05;99570.69;5125294;27;20199;-72
2022/07/06 01:49:48;;;;;;;11.70;5.57;;;;;;;24.46;56.01;99581.09;5125490;27;20035;-73
2022/07/06 01:52:13;;;;;;;10.30;5.05;;;;;;;24.53;56.24;99573.56;5124641;27;20131;-73
2022/07/06 01:54:39;;;;;;;17.42;5.38;;;;;;;24.55;56.37;99574.13;5127597;27;20023;-73
2022/07/06 01:57:04;;;;;;;13.32;5.50;;;;;;;24.50;56.26;99568.69;5125762;27;20024;-73
2022/07/06 01:59:30;;;;;;;10.48;5.82;;;;;;;24.30;57.10;99558.47;5126721;27;20078;-73
2022/07/06 02:01:55;;;;;;;10.50;6.32;;;;;;;24.22;57.92;99555.38;5124081;27;20096;-72
2022/07/06 02:04:21;;;;;;;13.35;5.68;;;;;;;24.22;57.93;99566.22;5125534;27;20043;-73
2022/07/06 02:06:46;;;;;;;14.65;5.85;;;;;;;24.11;57.81;99552.59;5125071;27;20023;-73
2022/07/06 02:09:12;;;;;;;12.98;6.38;;;;;;;24.12;58.42;99543.41;5125623;27;20043;-73
2022/07/06 02:11:37;;;;;;;14.48;5.70;;;;;;;23.98;57.58;99542.16;5127425;27;20035;-73
2022/07/06 02:14:03;;;;;;;9.88;4.70;;;;;;;23.92;57.31;99563.97;5126525;27;20035;-73
2022/07/06 02:16:28;;;;;;;14.88;5.38;;;;;;;23.83;57.85;99545.50;5129513;27;20361;-73
2022/07/06 02:18:54;;;;;;;11.07;4.93;;;;;;;23.72;58.15;99553.75;5125012;27;20027;-73
2022/07/06 02:21:19;;;;;;;11.88;5.00;;;;;;;23.64;58.01;99544.19;5106859;27;20016;-73
2022/07/06 02:23:45;;;;;;;9.00;5.00;;;;;;;23.68;57.70;99553.44;5125029;27;20034;-72
2022/07/06 02:26:10;;;;;;;9.88;4.80;;;;;;;23.63;57.94;99557.97;5125204;27;20317;-73
2022/07/06 02:28:36;;;;;;;12.90;4.97;;;;;;;23.65;57.95;99553.94;5124842;27;20043;-73
2022/07/06 02:31:01;;;;;;;13.77;4.85;;;;;;;23.54;57.73;99549.44;5125525;27;20031;-73
2022/07/06 02:33:27;;;;;;;11.52;4.78;;;;;;;23.46;58.23;99548.00;5126407;27;20027;-73
2022/07/06 02:35:52;;;;;;;11.30;5.38;;;;;;;23.27;58.78;99537.75;5123516;27;20091;-72
2022/07/06 02:38:18;;;;;;;12.88;5.25;;;;;;;23.37;59.16;99544.09;5129828;27;20039;-73
2022/07/06 02:40:43;;;;;;;11.25;5.20;;;;;;;23.36;58.83;99536.25;5123600;27;20027;-73
2022/07/06 02:43:09;;;;;;;9.60;5.13;;;;;;;23.42;58.55;99538.75;5128214;27;20035;-73
2022/07/06 02:45:34;;;;;;;12.43;5.15;;;;;;;23.24;58.26;99537.16;5124922;27;20216;-73
2022/07/06 02:48:00;;;;;;;14.75;5.20;;;;;;;23.11;59.43;99540.22;5109230;28;20260;-73
2022/07/06 02:50:25;;;;;;;12.40;5.00;;;;;;;22.92;60.18;99547.78;5125327;27;20202;-73
2022/07/06 02:52:51;;;;;;;16.23;5.30;;;;;;;22.84;60.28;99541.97;5123318;27;20032;-73
2022/07/06 02:55:16;;;;;;;6.72;4.88;;;;;;;22.89;60.37;99552.88;5122693;27;20637;-73
2022/07/06 02:57:42;;;;;;;14.27;5.28;;;;;;;22.87;61.59;99560.38;5124533;27;20098;-73
2022/07/06 03:00:09;;;;;;;10.40;5.00;;;;;;;22.86;61.30;99564.13;5125503;27;20031;-73
2022/07/06 03:02:35;;;;;;;10.35;5.32;;;;;;;23.02;61.59;99571.44;5128825;27;20081;-73
2022/07/06 03:05:00;;;;;;;13.00;5.97;;;;;;;23.19;61.70;99563.28;5124803;27;20110;-73
2022/07/06 03:07:26;;;;;;;10.85;5.47;;;;;;;23.30;61.65;99569.66;5123642;27;20035;-73
2022/07/06 03:09:51;;;;;;;10.02;5.28;;;;;;;23.29;62.07;99576.13;5124193;27;20031;-73
2022/07/06 03:12:17;;;;;;;13.43;6.40;;;;;;;23.26;62.13;99574.75;5125462;27;20022;-72
2022/07/06 03:14:42;;;;;;;11.10;5.38;;;;;;;23.24;62.35;99575.00;5105901;28;20271;-73
2022/07/06 03:17:08;;;;;;;9.38;5.50;;;;;;;23.37;62.42;99579.22;5123389;27;20041;-73
2022/07/06 03:19:33;;;;;;;15.20;6.13;;;;;;;23.20;62.32;99576.56;5140416;27;20062;-73
2022/07/06 03:21:59;;;;;;;12.00;5.97;;;;;;;23.31;62.17;99584.78;5142117;27;20034;-73
2022/07/06 03:24:24;;;;;;;13.55;5.60;;;;;;;23.44;61.49;99592.53;5142913;27;20243;-73
2022/07/06 03:26:50;;;;;;;9.32;5.68;;;;;;;23.34;61.92;99585.13;5135996;27;20032;-73
2022/07/06 03:29:15;;;;;;;20.65;8.05;;;;;;;23.44;61.36;99590.66;5143858;27;20308;-73
2022/07/06 03:31:41;;;;;;;39.22;18.90;;;;;;;23.47;61.53;99600.97;5143209;27;20348;-73
2022/07/06 03:34:06;;;;;;;53.67;22.17;;;;;;;23.64;60.84;99594.72;5142951;27;20260;-73
2022/07/06 03:36:32;;;;;;;39.58;20.17;;;;;;;23.74;60.68;99601.09;5138338;27;20039;-73
2022/07/06 03:38:57;;;;;;;37.63;17.63;;;;;;;23.71;60.74;99592.66;5142728;27;20046;-73
2022/07/06 03:41:23;;;;;;;37.38;17.85;;;;;;;23.76;60.54;99590.84;5143063;27;20031;-73
2022/07/06 03:43:48;;;;;;;43.90;18.30;;;;;;;23.89;60.41;99595.03;5124819;27;20095;-73
2022/07/06 03:46:13;;;;;;;35.80;14.52;;;;;;;23.79;61.16;99606.56;5143122;27;20088;-73
2022/07/06 03:48:39;;;;;;;36.35;13.05;;;;;;;23.92;60.50;99604.53;5143346;27;20039;-73
2022/07/06 03:51:06;;;;;;;26.00;10.02;;;;;;;24.05;60.16;99596.88;5142714;27;20031;-73
2022/07/06 03:53:31;;;;;;;37.38;12.32;;;;;;;24.04;60.16;99589.84;5142193;27;20038;-73
2022/07/06 03:58:41;;;;;;;20.80;10.07;;;;;;;24.22;61.01;99596.78;5138372;27;20038;-73
2022/07/06 04:01:06;;;;;;;24.08;9.45;;;;;;;24.33;59.38;99595.84;5107544;28;20023;-73
2022/07/06 04:03:31;;;;;;;21.30;8.93;;;;;;;24.47;59.10;99601.66;5142840;27;20043;-73
2022/07/06 04:05:57;;;;;;;24.10;9.40;;;;;;;24.41;59.42;99605.41;5142815;27;20266;-73
2022/07/06 04:08:23;;;;;;;29.75;8.98;;;;;;;24.58;59.09;99605.28;5142765;27;20031;-73
2022/07/06 04:10:48;;;;;;;23.65;8.38;;;;;;;24.69;58.75;99605.13;5133708;27;20194;-73
2022/07/06 04:13:13;;;;;;;31.45;7.93;;;;;;;24.74;58.24;99599.75;5122159;28;20028;-73
2022/07/06 04:15:39;;;;;;;27.98;7.25;;;;;;;24.87;57.40;99603.91;5105601;28;20032;-73
2022/07/06 04:18:04;;;;;;;27.15;7.63;;;;;;;24.92;57.85;99601.25;5121351;28;20046;-73
2022/07/06 04:20:30;;;;;;;20.15;6.80;;;;;;;24.84;57.47;99613.38;5122061;28;20038;-73
2022/07/06 04:22:55;;;;;;;15.32;6.85;;;;;;;24.88;58.18;99610.97;5122971;28;20269;-73
2022/07/06 04:25:21;;;;;;;19.65;7.32;;;;;;;25.22;56.98;99613.44;5121245;28;20202;-73
2022/07/06 04:27:46;;;;;;;14.88;6.25;;;;;;;25.26;55.27;99609.94;5105909;28;20024;-73
2022/07/06 04:30:12;;;;;;;28.70;6.28;;;;;;;25.26;55.22;99604.50;5127881;28;20335;-73
2022/07/06 04:32:37;;;;;;;19.00;6.10;;;;;;;25.56;54.95;99605.75;5124912;28;20032;-73
2022/07/06 04:35:04;;;;;;;19.17;7.22;;;;;;;25.52;54.04;99610.09;5124835;28;20035;-73
2022/07/06 04:37:30;;;;;;;23.80;7.63;;;;;;;25.67;53.67;99613.72;5122979;28;20054;-73
2022/07/06 04:39:55;;;;;;;24.73;7.78;;;;;;;25.80;53.36;99606.19;5121007;28;20016;-73
2022/07/06 04:42:21;;;;;;;21.70;7.55;;;;;;;25.94;53.41;99610.03;5122761;28;20058;-73
2022/07/06 04:44:46;;;;;;;19.30;7.53;;;;;;;26.08;52.66;99590.31;5106375;28;20055;-73
2022/07/06 04:47:13;;;;;;;16.33;6.85;;;;;;;26.15;52.40;99591.94;5122960;28;20039;-73
2022/07/06 04:49:38;;;;;;;20.48;8.45;;;;;;;26.32;52.83;99604.22;5124194;28;20101;-73
2022/07/06 04:52:05;;;;;;;17.25;6.75;;;;;;;26.56;51.75;99593.66;5124497;27;20040;-73
2022/07/06 04:54:30;;;;;;;16.98;6.55;;;;;;;26.84;52.53;99596.94;5126696;27;20162;-73
2022/07/06 04:56:56;;;;;;;15.18;6.40;;;;;;;27.02;51.63;99601.84;5126022;27;20329;-73
2022/07/06 04:59:21;;;;;;;15.25;6.85;;;;;;;27.10;51.31;99593.16;5129994;27;20032;-73
2022/07/06 05:01:47;;;;;;;16.65;7.03;;;;;;;27.11;51.09;99585.81;5126380;27;20084;-73
2022/07/06 05:04:13;;;;;;;16.13;7.47;;;;;;;27.24;50.91;99601.56;5124557;27;20042;-73
2022/07/06 05:06:39;;;;;;;17.48;7.18;;;;;;;27.54;50.49;99595.22;5126002;27;20103;-73
2022/07/06 05:09:05;;;;;;;15.63;7.60;;;;;;;27.50;50.38;99600.41;5132267;27;20040;-73
2022/07/06 05:11:30;;;;;;;16.17;7.05;;;;;;;27.67;50.73;99594.69;5108634;28;20068;-73
2022/07/06 05:13:56;;;;;;;19.27;8.15;;;;;;;27.72;50.97;99599.28;5106984;27;20079;-73
2022/07/06 05:16:21;;;;;;;17.27;9.35;;;;;;;28.00;51.13;99598.59;5124982;27;20047;-73
2022/07/06 05:18:47;;;;;;;10.55;7.53;;;;;;;27.79;51.82;99603.34;5125241;27;21507;-73
2022/07/06 05:21:12;;;;;;;17.60;7.90;;;;;;;27.97;52.15;99607.34;5124553;27;20036;-73
2022/07/06 05:23:38;;;;;;;14.20;8.07;;;;;;;27.88;51.59;99600.84;5129076;27;20077;-73
2022/07/06 05:26:04;;;;;;;13.43;7.40;;;;;;;28.02;51.16;99611.94;5125511;27;20027;-73
2022/07/06 05:28:29;;;;;;;12.90;7.32;;;;;;;28.12;51.89;99614.63;5129028;27;20054;-73
2022/07/06 05:30:55;;;;;;;14.68;7.43;;;;;;;28.01;51.27;99619.28;5125977;27;20058;-73
2022/07/06 05:33:20;;;;;;;17.60;7.95;;;;;;;27.81;51.69;99622.91;5106632;27;20033;-73
2022/07/06 05:35:46;;;;;;;19.17;7.15;;;;;;;27.98;51.61;99628.81;5116688;27;20046;-73
2022/07/06 05:38:11;;;;;;;11.50;6.43;;;;;;;28.18;50.67;99635.28;5126144;27;20024;-73
2022/07/06 05:40:37;;;;;;;14.00;6.45;;;;;;;28.50;50.49;99627.50;5124854;27;20039;-73
2022/07/06 05:43:03;;;;;;;11.73;6.40;;;;;;;29.09;49.49;99639.34;5128222;27;20397;-73
2022/07/06 05:45:28;;;;;;;16.67;8.52;;;;;;;29.48;48.68;99642.81;5124686;27;20038;-73
2022/07/06 05:50:39;;;;;;;16.40;6.97;;;;;;;29.31;48.96;99645.16;5127701;27;20030;-73
2022/07/06 05:53:06;;;;;;;11.38;6.55;;;;;;;29.31;48.21;99647.88;5124988;27;20054;-73
2022/07/06 05:55:32;;;;;;;17.63;8.38;;;;;;;29.45;47.58;99651.59;5124303;27;20352;-73
2022/07/06 05:57:58;;;;;;;18.30;7.13;;;;;;;29.24;49.83;99650.94;5124744;27;20270;-73
2022/07/06 06:00:24;;;;;;;11.60;6.68;;;;;;;28.87;49.12;99645.25;5128449;27;20031;-73
2022/07/06 06:02:50;;;;;;;19.83;8.73;;;;;;;28.93;49.89;99649.56;5124323;27;20317;-73
2022/07/06 06:05:16;;;;;;;12.18;7.57;;;;;;;29.10;50.35;99660.03;5127859;27;20044;-73
2022/07/06 06:07:43;;;;;;;16.27;7.53;;;;;;;29.39;49.90;99657.34;5127332;27;20039;-73
2022/07/06 06:10:11;;;;;;;10.98;7.93;;;;;;;29.41;50.05;99647.78;5125285;27;20039;-73
2022/07/06 06:12:37;;;;;;;13.68;8.80;;;;;;;29.46;50.91;99658.66;5126881;27;20055;-73
2022/07/06 06:15:04;;;;;;;15.45;7.93;;;;;;;29.52;50.70;99660.25;5126700;27;20039;-74
2022/07/06 06:17:29;;;;;;;14.25;8.60;;;;;;;29.47;50.13;99646.66;5125974;27;20198;-73
2022/07/06 06:19:55;;;;;;;14.93;7.85;;;;;;;29.45;50.54;99656.22;5122908;27;20055;-73
2022/07/06 06:22:21;;;;;;;19.38;7.90;;;;;;;29.46;50.57;99653.22;5124415;27;20085;-73
2022/07/06 06:24:46;;;;;;;14.57;7.35;;;;;;;29.62;49.56;99650.31;5127830;27;20321;-73
2022/07/06 06:27:12;;;;;;;13.82;7.68;;;;;;;29.65;49.04;99647.00;5128007;27;20027;-73
2022/07/06 06:29:37;;;;;;;15.75;7.85;;;;;;;29.57;50.40;99634.00;5111626;27;20058;-73
2022/07/06 06:32:05;;;;;;;12.25;7.30;;;;;;;30.09;48.17;99655.78;5128450;27;20051;-73
2022/07/06 06:34:31;;;;;;;12.38;8.65;;;;;;;30.12;49.05;99651.66;5123697;27;20098;-73
2022/07/06 06:36:56;;;;;;;13.80;8.05;;;;;;;30.34;47.01;99632.81;5126161;27;20058;-73
2022/07/06 06:39:22;;;;;;;13.27;7.05;;;;;;;30.12;47.38;99649.72;5127312;27;20301;-73
2022/07/06 06:41:47;;;;;;;28.13;8.00;;;;;;;29.79;46.37;99650.66;5123384;27;20045;-73
2022/07/06 06:44:14;;;;;;;9.90;6.72;;;;;;;29.76;46.58;99648.53;5124991;27;20216;-73
2022/07/06 06:46:39;;;;;;;11.75;7.30;;;;;;;29.78;47.03;99651.78;5126335;27;20355;-73
2022/07/06 06:49:05;;;;;;;11.65;6.90;;;;;;;30.11;46.29;99653.56;5124938;27;20047;-73
2022/07/06 06:51:32;;;;;;;11.98;6.72;;;;;;;30.46;45.97;99655.03;5123000;27;20023;-73
2022/07/06 06:53:57;;;;;;;13.55;6.80;;;;;;;30.63;44.77;99651.81;5125938;27;20031;-73
2022/07/06 06:56:22;;;;;;;12.57;6.55;;;;;;;30.63;44.53;99651.00;5125141;27;20043;-73
2022/07/06 06:58:48;;;;;;;15.88;8.18;;;;;;;30.68;46.03;99638.06;5129167;27;20039;-73
2022/07/06 07:01:13;;;;;;;12.63;7.45;;;;;;;30.97;46.03;99646.06;5123158;27;20283;-73
2022/07/06 07:03:39;;;;;;;14.52;7.15;;;;;;;31.13;44.95;99639.22;5125126;27;20081;-73
2022/07/06 07:06:04;;;;;;;10.32;7.72;;;;;;;30.96;44.66;99641.72;5125807;27;20022;-74
2022/07/06 07:08:30;;;;;;;11.85;8.02;;;;;;;31.48;44.69;99628.00;5122931;27;20431;-74
2022/07/06 07:10:55;;;;;;;8.90;7.07;;;;;;;31.41;43.14;99631.94;5128077;27;20034;-73
2022/07/06 07:13:21;;;;;;;9.05;7.57;;;;;;;31.24;43.90;99625.44;5125445;27;20297;-74
2022/07/06 07:15:46;;;;;;;11.35;7.07;;;;;;;30.89;44.50;99637.72;5123017;27;20313;-73
2022/07/06 07:18:12;;;;;;;16.75;8.27;;;;;;;30.80;45.48;99629.41;5123135;27;20325;-73
2022/07/06 07:20:37;;;;;;;12.13;8.00;;;;;;;31.04;44.93;99630.09;5123317;27;20035;-73
2022/07/06 07:23:04;;;;;;;9.68;8.02;;;;;;;31.05;44.65;99622.69;5121976;27;20039;-73
2022/07/06 07:25:29;;;;;;;14.30;7.50;;;;;;;31.20;44.38;99633.38;5126899;27;20053;-73
2022/07/06 07:27:55;;;;;;;18.63;8.00;;;;;;;31.20;44.04;99625.19;5124322;27;20031;-73
2022/07/06 07:30:20;;;;;;;13.57;8.00;;;;;;;31.16;44.16;99623.34;5121700;27;20055;-73
2022/07/06 07:32:46;;;;;;;15.40;7.93;;;;;;;30.95;44.83;99620.13;5127159;27;20055;-73
2022/07/06 07:35:11;;;;;;;8.57;7.03;;;;;;;31.59;42.57;99622.00;5106374;28;20337;-73
2022/07/06 07:37:37;;;;;;;13.10;7.60;;;;;;;31.47;44.29;99626.38;5125038;27;20034;-73
2022/07/06 07:40:04;;;;;;;13.43;8.65;;;;;;;31.37;44.29;99621.91;5123957;27;20047;-73
2022/07/06 07:42:29;;;;;;;17.45;8.90;;;;;;;31.15;44.81;99629.94;5127696;27;20058;-73
2022/07/06 07:44:55;;;;;;;20.05;8.38;;;;;;;31.40;42.88;99626.75;5126502;27;20028;-73
2022/07/06 07:47:20;;;;;;;12.95;8.52;;;;;;;31.26;43.73;99620.47;5122636;27;20039;-73
2022/07/06 07:49:46;;;;;;;10.13;8.40;;;;;;;31.73;42.06;99624.78;5121548;27;20061;-73
2022/07/06 07:52:11;;;;;;;12.82;7.95;;;;;;;31.77;42.22;99619.50;5126276;27;20296;-73
2022/07/06 07:54:37;;;;;;;15.63;8.45;;;;;;;31.52;41.93;99620.78;5122428;27;20194;-73
2022/07/06 07:57:03;;;;;;;14.52;8.63;;;;;;;31.22;43.85;99619.44;5123828;27;20261;-73
2022/07/06 07:59:28;;;;;;;18.98;9.90;;;;;;;31.06;43.59;99624.31;5124061;27;20070;-73
2022/07/06 08:01:54;;;;;;;11.85;8.52;;;;;;;30.91;43.73;99619.09;5122838;27;20317;-73
2022/07/06 08:04:19;;;;;;;11.95;9.20;;;;;;;30.25;45.13;99625.56;5123876;28;20054;-73
2022/07/06 08:06:46;;;;;;;10.98;9.38;;;;;;;30.53;45.12;99632.00;5125045;27;20045;-73
2022/07/06 08:09:12;;;;;;;20.35;10.30;;;;;;;30.64;43.88;99633.50;5126196;27;20035;-73
2022/07/06 08:11:37;;;;;;;12.52;10.00;;;;;;;30.54;45.01;99630.88;5124731;27;20087;-73
2022/07/06 08:14:03;;;;;;;18.25;8.98;;;;;;;30.48;44.96;99633.69;5126448;28;20047;-74
2022/07/06 08:16:29;;;;;;;17.10;9.60;;;;;;;30.48;45.61;99632.88;5123322;28;20344;-73
2022/07/06 08:18:55;;;;;;;15.85;8.90;;;;;;;30.70;44.91;99633.09;5122141;28;20028;-73
2022/07/06 08:21:20;;;;;;;16.67;9.60;;;;;;;30.80;44.51;99626.66;5121763;28;20100;-73
2022/07/06 08:23:45;;;;;;;10.48;9.05;;;;;;;31.00;43.66;99625.50;5125954;28;20035;-73
2022/07/06 08:26:11;;;;;;;11.32;9.52;;;;;;;31.60;44.13;99620.09;5128189;27;20050;-73
2022/07/06 08:28:36;;;;;;;11.60;8.93;;;;;;;31.56;42.28;99611.66;5128124;27;20323;-74
2022/07/06 08:31:02;;;;;;;10.27;8.25;;;;;;;31.74;42.56;99616.25;5110247;27;20104;-73
2022/07/06 08:33:27;;;;;;;15.20;9.57;;;;;;;32.04;42.07;99614.00;5128345;27;20375;-73
2022/07/06 08:35:53;;;;;;;10.68;8.15;;;;;;;32.22;40.34;99610.31;5110064;27;20077;-73
2022/07/06 08:38:19;;;;;;;12.07;8.52;;;;;;;32.52;39.75;99597.88;5113315;27;20077;-73
2022/07/06 08:40:48;;;;;;;12.77;9.43;;;;;;;32.69;39.97;99608.97;5129750;27;20030;-73
2022/07/06 08:43:14;;;;;;;15.60;8.90;;;;;;;32.77;39.42;99612.09;5127886;27;20023;-73
2022/07/06 08:45:43;;;;;;;19.92;8.63;;;;;;;32.55;38.58;99605.47;5125520;27;20027;-73
2022/07/06 08:48:10;;;;;;;12.20;8.98;;;;;;;32.16;40.69;99605.25;5127203;27;20050;-73
2022/07/06 08:50:35;;;;;;;12.73;9.27;;;;;;;32.12;41.18;99604.25;5129684;27;20054;-73
2022/07/06 08:53:02;;;;;;;14.30;9.10;;;;;;;31.96;41.65;99618.28;5127010;27;20068;-73
2022/07/06 08:55:27;;;;;;;14.70;9.68;;;;;;;31.71;41.58;99614.13;5126448;27;20035;-73
2022/07/06 08:57:55;;;;;;;11.73;9.40;;;;;;;31.88;41.57;99607.22;5127265;27;20035;-73
2022/07/06 09:00:21;;;;;;;12.45;9.63;;;;;;;31.79;41.93;99604.41;5126143;27;20074;-73
2022/07/06 09:02:50;;;;;;;15.27;8.50;;;;;;;31.53;42.34;99611.47;5126498;27;20035;-73
2022/07/06 09:05:17;;;;;;;13.18;8.40;;;;;;;31.53;42.02;99615.03;5130515;27;20031;-73
2022/07/06 09:07:48;;;;;;;11.82;8.70;;;;;;;31.53;42.02;99611.47;5126104;27;20035;-73
2022/07/06 09:10:16;;;;;;;11.73;9.60;;;;;;;31.66;42.34;99610.66;5125705;27;20087;-73
2022/07/06 09:12:42;;;;;;;13.98;9.32;;;;;;;31.34;41.85;99617.84;5130163;27;20216;-73
2022/07/06 09:15:08;;;;;;;14.88;9.98;;;;;;;31.02;44.07;99620.56;5128047;27;20020;-73
2022/07/06 09:17:38;;;;;;;17.23;10.23;;;;;;;31.13;43.88;99619.25;5125411;27;20220;-73
2022/07/06 09:20:08;;;;;;;15.55;10.05;;;;;;;31.02;44.00;99607.69;5128586;27;20035;-73
2022/07/06 09:22:33;;;;;;;14.68;9.73;;;;;;;31.26;43.84;99624.00;5126548;27;20076;-73
2022/07/06 09:25:10;;;;;;;18.02;10.95;;;;;;;31.21;43.44;99626.84;5108935;27;20023;-73
2022/07/06 09:27:41;;;;;;;15.90;10.65;;;;;;;31.12;43.59;99623.91;5126590;27;20094;-73
2022/07/06 09:30:08;;;;;;;18.95;11.05;;;;;;;31.17;44.17;99627.72;5127280;27;20099;-73
2022/07/06 09:32:47;;;;;;;15.52;10.65;;;;;;;31.13;43.48;99624.72;5127163;27;20155;-73
2022/07/06 09:35:35;;;;;;;13.50;10.55;;;;;;;30.96;44.04;99621.75;5130672;27;20030;-73
2022/07/06 09:38:11;;;;;;;17.40;11.10;;;;;;;30.75;44.15;99622.09;5125947;27;20194;-73
2022/07/06 09:40:38;;;;;;;14.13;10.38;;;;;;;30.64;45.36;99622.56;5129290;27;20076;-73
2022/07/06 09:43:23;;;;;;;19.10;12.18;;;;;;;30.41;46.34;99627.78;5109166;27;20464;-73
2022/07/06 09:45:54;;;;;;;15.93;11.77;;;;;;;30.32;47.12;99613.16;5131108;27;20046;-73
2022/07/06 09:48:21;;;;;;;15.68;11.75;;;;;;;30.30;47.45;99625.50;5107617;27;20373;-73
2022/07/06 09:50:55;;;;;;;18.15;12.07;;;;;;;30.36;47.45;99618.84;5127082;27;20030;-73
2022/07/06 09:53:21;;;;;;;;;;;;;;;30.38;47.31;99613.91;5125117;27;20038;-73
2022/07/06 09:55:48;;;;;;;23.17;12.50;;;;;;;30.32;48.41;99610.44;5128730;27;19918;-73
2022/07/06 09:58:15;;;;;;;17.13;12.18;;;;;;;30.29;47.43;99612.94;5134538;27;20046;-73
2022/07/06 10:00:45;;;;;;;16.45;10.60;;;;;;;30.43;47.10;99609.19;5135837;27;20030;-74
2022/07/06 10:03:11;;;;;;;13.77;10.82;;;;;;;30.67;46.48;99603.63;5143558;27;20046;-74
2022/07/06 10:05:39;;;;;;;16.17;11.05;;;;;;;30.80;45.74;99597.41;5134068;27;20031;-74
2022/07/06 10:08:06;;;;;;;12.52;10.48;;;;;;;30.74;45.24;99603.25;5144194;27;20034;-74
2022/07/06 10:10:32;;;;;;;15.00;10.93;;;;;;;30.87;45.41;99591.56;5143488;27;20041;-74
2022/07/06 10:12:59;;;;;;;19.17;11.70;;;;;;;31.06;44.83;99592.31;5142715;27;20099;-73
2022/07/06 10:15:31;;;;;;;14.32;10.82;;;;;;;31.25;43.96;99588.75;5143794;27;20373;-73
2022/07/06 10:17:58;;;;;;;11.82;9.18;;;;;;;31.42;43.53;99583.50;5138576;27;20039;-73
2022/07/06 10:20:27;;;;;;;13.18;9.23;;;;;;;31.67;42.67;99574.78;5143699;27;20073;-73
2022/07/06 10:22:57;;;;;;;16.48;8.98;;;;;;;31.86;41.17;99576.59;5143300;27;20047;-73
2022/07/06 10:25:23;;;;;;;9.50;8.27;;;;;;;31.99;40.67;99565.63;5124719;27;20035;-73
2022/07/06 10:27:48;;;;;;;11.38;7.95;;;;;;;32.10;39.04;99568.94;5138598;27;20023;-73
2022/07/06 10:30:16;;;;;;;9.98;8.27;;;;;;;32.41;38.52;99569.09;5133599;27;20167;-73
2022/07/06 10:32:44;;;;;;;10.85;8.52;;;;;;;32.07;38.66;99570.38;5141781;27;20096;-73
2022/07/06 10:35:10;;;;;;;12.07;8.65;;;;;;;31.96;40.05;99570.91;5139364;27;20034;-73
2022/07/06 10:37:35;;;;;;;13.98;8.82;;;;;;;32.06;39.48;99571.50;5143587;27;20208;-73
2022/07/06 10:42:55;;;;;;;13.23;8.68;;;;;;;31.87;39.78;99564.53;5139843;27;20046;-73
2022/07/06 10:45:46;;;;;;;11.82;8.80;;;;;;;32.07;39.38;99564.09;5139730;27;20089;-73
2022/07/06 10:48:11;;;;;;;12.07;8.48;;;;;;;32.20;37.29;99559.69;5137903;27;20065;-73
2022/07/06 10:50:46;;;;;;;11.07;8.13;;;;;;;31.81;39.00;99552.88;5141303;27;20072;-73
2022/07/06 10:53:13;;;;;;;10.93;8.20;;;;;;;31.86;38.48;99569.19;5137478;27;20039;-73
2022/07/06 10:55:40;;;;;;;29.63;21.45;;;;;;;31.53;39.01;99557.53;5122437;27;20035;-74
2022/07/06 10:58:06;;;;;;;10.90;9.10;;;;;;;31.63;38.61;99562.00;5137131;27;20041;-73
2022/07/06 11:00:51;;;;;;;12.73;8.80;;;;;;;31.56;38.66;99553.38;5141242;27;20152;-73
2022/07/06 11:03:39;;;;;;;14.02;8.25;;;;;;;31.78;36.41;99558.97;5141695;27;20228;-73
2022/07/06 11:06:08;;;;;;;10.60;7.95;;;;;;;31.77;37.68;99560.09;5132085;27;20035;-73
2022/07/06 11:08:48;;;;;;;13.00;8.48;;;;;;;31.56;39.23;99556.13;5142842;27;20103;-74
2022/07/06 11:11:18;;;;;;;11.95;8.15;;;;;;;31.67;38.60;99557.53;5141587;27;20034;-73
2022/07/06 11:14:03;;;;;;;9.38;6.63;;;;;;;31.59;38.21;99545.38;5136933;27;20095;-73
2022/07/06 11:16:33;;;;;;;9.00;7.35;;;;;;;31.54;38.47;99545.47;5142597;27;20227;-74
2022/07/06 11:19:11;;;;;;;13.32;7.65;;;;;;;31.65;38.38;99541.41;5138524;27;20027;-73
2022/07/06 11:21:43;;;;;;;16.90;9.50;;;;;;;31.42;39.96;99547.94;5136345;27;20027;-73
2022/07/06 11:24:11;;;;;;;9.73;8.25;;;;;;;31.54;39.64;99542.75;5142644;27;20027;-73
2022/07/06 11:26:37;;;;;;;13.57;9.45;;;;;;;31.59;38.29;99539.09;5142434;27;20311;-73
2022/07/06 11:29:07;;;;;;;10.02;8.50;;;;;;;31.73;38.47;99531.72;5142556;27;20233;-74
2022/07/06 11:31:36;;;;;;;14.63;8.35;;;;;;;31.65;39.89;99526.94;5123595;27;20354;-74